createdAt,value
2022-08-22T00:02:33.339Z,0.93
2022-08-22T00:02:56.965Z,0.68
2022-08-22T00:02:57.904Z,1.10
2022-08-22T00:05:02.670Z,1.27
2022-08-22T00:07:30.043Z,1.17
2022-08-22T00:10:12.037Z,2.17
2022-08-22T00:13:12.582Z,1.33
2022-08-22T00:16:03.179Z,1.48
2022-08-22T00:18:44.007Z,0.90
2022-08-22T00:21:13.339Z,2.35
2022-08-22T00:23:43.668Z,1.80
2022-08-22T00:26:29.015Z,1.27
2022-08-22T00:29:06.630Z,1.52
2022-08-22T00:31:36.838Z,1.55
2022-08-22T00:34:07.212Z,1.02
2022-08-22T00:36:38.367Z,1.00
2022-08-22T00:39:08.817Z,0.98
2022-08-22T00:41:50.660Z,1.70
2022-08-22T00:44:18.052Z,1.52
2022-08-22T00:47:05.877Z,1.70
2022-08-22T00:50:02.910Z,2.03
2022-08-22T00:52:35.663Z,1.60
2022-08-22T00:55:09.355Z,1.63
2022-08-22T00:57:46.087Z,1.45
2022-08-22T01:00:16.501Z,2.17
2022-08-22T01:03:29.041Z,1.60
2022-08-22T01:06:09.060Z,0.95
2022-08-22T01:08:51.794Z,1.02
2022-08-22T01:11:56.315Z,0.50
2022-08-22T01:14:35.038Z,1.23
2022-08-22T01:17:25.360Z,1.40
2022-08-22T01:20:07.977Z,1.73
2022-08-22T01:22:51.516Z,1.45
2022-08-22T01:25:40.376Z,1.17
2022-08-22T01:28:20.109Z,1.10
2022-08-22T01:30:53.575Z,0.75
2022-08-22T01:33:41.859Z,1.00
2022-08-22T01:36:12.301Z,0.43
2022-08-22T01:38:58.873Z,1.45
2022-08-22T01:41:32.393Z,1.02
2022-08-22T01:44:01.147Z,1.10
2022-08-22T01:49:30.470Z,0.63
2022-08-22T01:52:06.770Z,0.57
2022-08-22T01:54:37.139Z,0.25
2022-08-22T01:57:07.858Z,0.73
2022-08-22T01:59:46.845Z,0.40
2022-08-22T02:02:32.870Z,0.95
2022-08-22T02:05:18.723Z,0.40
2022-08-22T02:07:49.710Z,1.25
2022-08-22T02:10:32.344Z,1.58
2022-08-22T02:13:18.138Z,0.88
2022-08-22T02:15:50.517Z,0.20
2022-08-22T02:18:30.208Z,0.68
2022-08-22T02:21:06.557Z,0.15
2022-08-22T02:23:56.012Z,0.57
2022-08-22T02:26:23.790Z,0.43
2022-08-22T02:28:58.355Z,0.20
2022-08-22T02:31:44.362Z,0.95
2022-08-22T02:34:20.975Z,0.68
2022-08-22T02:36:51.285Z,0.60
2022-08-22T02:39:32.454Z,0.57
2022-08-22T02:42:42.095Z,0.80
2022-08-22T02:45:31.216Z,0.30
2022-08-22T02:48:07.839Z,0.63
2022-08-22T02:50:42.741Z,0.55
2022-08-22T02:53:25.728Z,0.60
2022-08-22T02:56:03.205Z,0.82
2022-08-22T02:58:42.795Z,0.68
2022-08-22T03:01:17.598Z,1.75
2022-08-22T03:03:47.982Z,0.60
2022-08-22T03:06:18.434Z,3.17
2022-08-22T03:09:01.634Z,0.70
2022-08-22T03:11:30.613Z,0.68
2022-08-22T03:14:07.595Z,1.83
2022-08-22T03:16:34.939Z,0.20
2022-08-22T03:19:20.631Z,0.77
2022-08-22T03:21:57.498Z,0.63
2022-08-22T03:24:34.628Z,0.57
2022-08-22T03:27:32.516Z,0.47
2022-08-22T03:33:07.386Z,1.17
2022-08-22T03:35:38.110Z,0.35
2022-08-22T03:38:28.856Z,0.55
2022-08-22T03:41:33.951Z,0.38
2022-08-22T03:44:19.674Z,0.40
2022-08-22T03:47:03.061Z,0.20
2022-08-22T03:49:45.979Z,0.30
2022-08-22T03:53:18.614Z,0.57
2022-08-22T03:55:56.042Z,0.63
2022-08-22T03:58:46.755Z,0.40
2022-08-22T04:01:16.986Z,0.50
2022-08-22T04:03:59.557Z,0.57
2022-08-22T04:06:32.482Z,0.10
2022-08-22T04:09:26.662Z,0.10
2022-08-22T04:12:17.848Z,0.55
2022-08-22T04:17:18.108Z,0.00
2022-08-22T04:20:23.486Z,0.63
2022-08-22T04:23:19.482Z,0.13
2022-08-22T04:26:12.721Z,0.45
2022-08-22T04:28:43.465Z,0.47
2022-08-22T04:31:12.322Z,0.30
2022-08-22T04:36:28.160Z,0.30
2022-08-22T04:39:20.588Z,0.17
2022-08-22T04:42:31.243Z,0.22
2022-08-22T04:45:02.580Z,0.32
2022-08-22T04:47:36.500Z,0.73
2022-08-22T04:50:08.940Z,0.40
2022-08-22T04:52:55.185Z,0.10
2022-08-22T04:55:29.769Z,0.20
2022-08-22T04:58:02.735Z,0.10
2022-08-22T05:00:42.525Z,0.47
2022-08-22T05:03:15.767Z,0.35
2022-08-22T05:05:46.962Z,0.20
2022-08-22T05:08:17.927Z,0.50
2022-08-22T05:10:48.134Z,0.10
2022-08-22T05:13:18.562Z,0.50
2022-08-22T05:15:50.230Z,0.93
2022-08-22T05:18:29.755Z,0.47
2022-08-22T05:20:59.711Z,0.45
2022-08-22T05:23:41.451Z,0.65
2022-08-22T05:26:10.469Z,0.32
2022-08-22T05:28:39.986Z,0.40
2022-08-22T05:31:09.635Z,0.68
2022-08-22T05:33:51.400Z,1.55
2022-08-22T05:36:41.794Z,0.38
2022-08-22T05:39:15.684Z,0.10
2022-08-22T05:41:44.375Z,0.35
2022-08-22T05:44:32.014Z,0.10
2022-08-22T05:47:05.690Z,0.35
2022-08-22T05:49:59.463Z,0.20
2022-08-22T05:52:35.883Z,0.55
2022-08-22T05:55:09.490Z,0.22
2022-08-22T05:57:39.738Z,0.63
2022-08-22T06:00:22.590Z,0.40
2022-08-22T06:02:50.009Z,0.10
2022-08-22T06:05:22.619Z,0.08
2022-08-22T06:07:51.349Z,0.10
2022-08-22T06:10:24.809Z,0.20
2022-08-22T06:13:11.972Z,0.03
2022-08-22T06:15:42.384Z,0.82
2022-08-22T06:18:12.626Z,0.22
2022-08-22T06:20:45.987Z,0.30
2022-08-22T06:23:17.379Z,0.25
2022-08-22T06:25:47.402Z,0.20
2022-08-22T06:28:20.837Z,0.15
2022-08-22T06:30:51.713Z,1.00
2022-08-22T06:33:22.796Z,0.57
2022-08-22T06:36:10.511Z,0.10
2022-08-22T06:38:58.516Z,0.25
2022-08-22T06:41:30.422Z,0.10
2022-08-22T06:43:58.527Z,0.05
2022-08-22T06:46:27.896Z,0.20
2022-08-22T06:48:56.732Z,0.20
2022-08-22T06:51:28.887Z,0.32
2022-08-22T06:54:00.015Z,0.22
2022-08-22T06:56:35.726Z,0.20
2022-08-22T06:59:07.056Z,0.20
2022-08-22T07:01:35.571Z,0.00
2022-08-22T07:04:07.679Z,0.32
2022-08-22T07:06:41.449Z,0.90
2022-08-22T07:09:20.261Z,0.05
2022-08-22T07:14:26.801Z,0.65
2022-08-22T07:17:02.273Z,0.40
2022-08-22T07:19:37.084Z,0.00
2022-08-22T07:22:15.797Z,0.93
2022-08-22T07:27:38.839Z,0.38
2022-08-22T07:30:10.224Z,0.45
2022-08-22T07:32:52.757Z,0.30
2022-08-22T07:35:20.408Z,0.00
2022-08-22T07:38:09.783Z,0.10
2022-08-22T07:40:44.758Z,0.10
2022-08-22T07:43:28.507Z,0.00
2022-08-22T07:45:55.871Z,0.10
2022-08-22T07:49:05.984Z,0.25
2022-08-22T07:54:06.231Z,0.10
2022-08-22T07:56:38.873Z,0.03
2022-08-22T07:59:13.036Z,0.00
2022-08-22T08:01:45.348Z,0.15
2022-08-22T08:04:15.792Z,0.00
2022-08-22T08:06:43.224Z,0.20
2022-08-22T08:09:15.739Z,0.00
2022-08-22T08:11:45.157Z,0.00
2022-08-22T08:14:15.090Z,0.30
2022-08-22T08:16:51.233Z,0.20
2022-08-22T08:19:22.217Z,0.10
2022-08-22T08:21:53.153Z,0.20
2022-08-22T08:24:23.157Z,0.00
2022-08-22T08:27:16.727Z,0.38
2022-08-22T08:29:49.018Z,0.28
2022-08-22T08:32:16.584Z,0.00
2022-08-22T08:34:44.631Z,0.20
2022-08-22T08:37:22.574Z,0.20
2022-08-22T08:39:54.646Z,0.10
2022-08-22T08:42:59.730Z,0.00
2022-08-22T08:45:29.347Z,0.08
2022-08-22T08:48:26.259Z,0.00
2022-08-22T08:50:53.651Z,0.30
2022-08-22T08:53:29.384Z,0.50
2022-08-22T08:56:19.918Z,0.00
2022-08-22T09:01:31.184Z,0.00
2022-08-22T09:04:19.923Z,0.00
2022-08-22T09:07:01.073Z,0.20
2022-08-22T09:09:32.088Z,0.20
2022-08-22T09:12:21.103Z,0.00
2022-08-22T09:14:57.283Z,0.08
2022-08-22T09:18:01.361Z,0.32
2022-08-22T09:20:38.267Z,0.20
2022-08-22T09:23:22.311Z,0.10
2022-08-22T09:25:55.704Z,0.10
2022-08-22T09:28:40.722Z,0.00
2022-08-22T09:31:21.848Z,0.00
2022-08-22T09:34:23.848Z,0.28
2022-08-22T09:37:27.125Z,0.08
2022-08-22T09:39:55.533Z,0.10
2022-08-22T09:42:46.305Z,0.38
2022-08-22T09:45:25.959Z,0.17
2022-08-22T09:47:53.315Z,0.38
2022-08-22T09:51:01.636Z,0.30
2022-08-22T09:53:41.619Z,0.15
2022-08-22T09:56:11.675Z,0.22
2022-08-22T09:59:02.258Z,0.10
2022-08-22T10:01:42.656Z,0.40
2022-08-22T10:04:34.581Z,0.30
2022-08-22T10:07:22.780Z,0.25
2022-08-22T10:12:35.128Z,0.50
2022-08-22T10:15:09.651Z,0.15
2022-08-22T10:17:44.157Z,0.20
2022-08-22T10:20:18.839Z,0.35
2022-08-22T10:22:52.365Z,0.10
2022-08-22T10:25:26.279Z,0.20
2022-08-22T10:28:01.959Z,0.35
2022-08-22T10:30:34.923Z,0.10
2022-08-22T10:33:05.758Z,0.10
2022-08-22T10:35:33.686Z,0.10
2022-08-22T10:38:07.684Z,0.28
2022-08-22T10:40:46.998Z,0.03
2022-08-22T10:43:28.619Z,0.70
2022-08-22T10:46:03.563Z,0.10
2022-08-22T10:48:36.439Z,0.40
2022-08-22T10:51:40.880Z,0.22
2022-08-22T10:54:23.700Z,0.10
2022-08-22T10:56:56.507Z,0.52
2022-08-22T10:59:45.662Z,0.30
2022-08-22T11:02:42.346Z,0.52
2022-08-22T11:05:24.453Z,0.57
2022-08-22T11:08:01.274Z,0.00
2022-08-22T11:10:42.497Z,0.68
2022-08-22T11:13:18.721Z,0.00
2022-08-22T11:15:49.108Z,0.00
2022-08-22T11:18:24.693Z,0.22
2022-08-22T11:20:58.282Z,0.00
2022-08-22T11:23:28.758Z,0.10
2022-08-22T11:26:05.008Z,0.08
2022-08-22T11:28:35.677Z,0.25
2022-08-22T11:31:16.410Z,0.45
2022-08-22T11:33:50.200Z,0.10
2022-08-22T11:36:32.517Z,0.10
2022-08-22T11:38:59.890Z,0.00
2022-08-22T11:41:43.908Z,0.05
2022-08-22T11:44:50.334Z,0.13
2022-08-22T11:47:20.660Z,0.25
2022-08-22T11:50:00.461Z,0.15
2022-08-22T11:53:07.604Z,0.00
2022-08-22T11:55:38.443Z,0.20
2022-08-22T11:58:11.895Z,0.52
2022-08-22T12:00:44.519Z,0.25
2022-08-22T12:03:39.585Z,0.40
2022-08-22T12:06:25.716Z,0.00
2022-08-22T12:08:59.148Z,0.22
2022-08-22T12:11:30.981Z,0.00
2022-08-22T12:14:06.644Z,0.00
2022-08-22T12:16:45.004Z,0.10
2022-08-22T12:19:42.100Z,0.20
2022-08-22T12:22:30.083Z,0.13
2022-08-22T12:25:16.563Z,0.00
2022-08-22T12:28:03.324Z,0.20
2022-08-22T12:30:45.063Z,0.10
2022-08-22T12:33:38.771Z,0.00
2022-08-22T12:36:44.311Z,0.00
2022-08-22T12:39:18.156Z,0.00
2022-08-22T12:41:46.858Z,0.20
2022-08-22T12:44:34.574Z,0.00
2022-08-22T12:47:42.262Z,0.08
2022-08-22T12:50:13.631Z,0.10
2022-08-22T12:53:00.606Z,0.00
2022-08-22T12:55:37.271Z,0.13
2022-08-22T12:58:08.670Z,0.00
2022-08-22T13:00:48.706Z,0.17
2022-08-22T13:03:32.431Z,0.20
2022-08-22T13:06:03.904Z,0.10
2022-08-22T13:08:33.806Z,0.10
2022-08-22T13:11:22.445Z,0.13
2022-08-22T13:13:59.163Z,0.10
2022-08-22T13:16:36.418Z,0.00
2022-08-22T13:19:17.631Z,0.13
2022-08-22T13:21:55.235Z,0.03
2022-08-22T13:24:39.762Z,0.43
2022-08-22T13:27:09.854Z,0.05
2022-08-22T13:29:43.710Z,0.17
2022-08-22T13:32:24.111Z,0.03
2022-08-22T13:34:57.537Z,0.00
2022-08-22T13:37:40.869Z,0.20
2022-08-22T13:40:13.869Z,0.10
2022-08-22T13:42:47.769Z,0.00
2022-08-22T13:45:24.728Z,0.10
2022-08-22T13:47:57.810Z,0.03
2022-08-22T13:50:28.983Z,0.00
2022-08-22T13:53:07.011Z,0.00
2022-08-22T13:55:34.527Z,0.00
2022-08-22T13:58:01.949Z,0.00
2022-08-22T14:00:51.440Z,0.00
2022-08-22T14:03:54.270Z,0.10
2022-08-22T14:06:38.588Z,0.00
2022-08-22T14:09:30.740Z,0.00
2022-08-22T14:12:33.519Z,0.10
2022-08-22T14:15:20.324Z,0.10
2022-08-22T14:17:51.360Z,0.00
2022-08-22T14:20:32.060Z,0.03
2022-08-22T14:23:13.128Z,0.00
2022-08-22T14:25:43.230Z,0.05
2022-08-22T14:28:30.070Z,0.10
2022-08-22T14:31:03.502Z,0.00
2022-08-22T14:33:34.069Z,0.20
2022-08-22T14:36:11.956Z,0.10
2022-08-22T14:38:46.181Z,0.00
2022-08-22T14:41:23.424Z,0.05
2022-08-22T14:43:58.024Z,0.00
2022-08-22T14:46:28.052Z,0.38
2022-08-22T14:49:02.568Z,0.00
2022-08-22T14:51:30.474Z,0.00
2022-08-22T14:54:21.041Z,0.10
2022-08-22T14:56:51.848Z,0.00
2022-08-22T14:59:55.821Z,0.00
2022-08-22T15:02:31.631Z,0.00
2022-08-22T15:05:11.466Z,0.00
2022-08-22T15:07:39.410Z,0.00
2022-08-22T15:12:47.857Z,0.00
2022-08-22T15:15:28.648Z,0.10
2022-08-22T15:17:56.651Z,0.00
2022-08-22T15:20:28.574Z,0.00
2022-08-22T15:23:09.902Z,0.00
2022-08-22T15:25:41.434Z,0.00
2022-08-22T15:28:14.272Z,0.00
2022-08-22T15:30:47.548Z,0.00
2022-08-22T15:33:35.623Z,0.00
2022-08-22T15:36:17.138Z,0.00
2022-08-22T15:38:47.994Z,0.00
2022-08-22T15:41:37.049Z,0.00
2022-08-22T15:44:14.798Z,0.00
2022-08-22T15:46:57.085Z,0.00
2022-08-22T15:49:28.091Z,0.00
2022-08-22T15:52:11.115Z,0.00
2022-08-22T15:54:51.272Z,0.00
2022-08-22T15:57:21.268Z,0.00
2022-08-22T15:59:53.905Z,0.00
2022-08-22T16:02:28.686Z,0.00
2022-08-22T16:05:16.131Z,0.00
2022-08-22T16:08:03.131Z,0.00
2022-08-22T16:10:33.872Z,0.00
2022-08-22T16:13:13.488Z,0.00
2022-08-22T16:15:55.945Z,0.00
2022-08-22T16:18:45.586Z,0.00
2022-08-22T16:21:17.774Z,0.00
2022-08-22T16:23:54.358Z,0.10
2022-08-22T16:26:30.967Z,0.00
2022-08-22T16:29:04.443Z,0.00
2022-08-22T16:31:37.274Z,0.00
2022-08-22T16:34:17.028Z,0.00
2022-08-22T16:36:56.827Z,0.00
2022-08-22T16:39:24.234Z,0.00
2022-08-22T16:42:12.031Z,0.00
2022-08-22T16:44:50.075Z,0.00
2022-08-22T16:47:37.934Z,0.00
2022-08-22T16:50:07.147Z,0.00
2022-08-22T16:53:11.059Z,0.10
2022-08-22T16:55:45.539Z,0.00
2022-08-22T16:58:44.706Z,0.00
2022-08-22T17:01:25.338Z,0.00
2022-08-22T17:04:10.116Z,0.00
2022-08-22T17:06:47.942Z,0.00
2022-08-22T17:09:34.803Z,0.10
2022-08-22T17:12:19.849Z,0.00
2022-08-22T17:15:05.876Z,0.00
2022-08-22T17:17:41.951Z,0.25
2022-08-22T17:20:34.003Z,0.10
2022-08-22T17:23:17.268Z,0.15
2022-08-22T17:25:44.626Z,0.00
2022-08-22T17:28:12.107Z,0.00
2022-08-22T17:30:48.387Z,0.00
2022-08-22T17:33:18.806Z,0.00
2022-08-22T17:35:51.659Z,0.10
2022-08-22T17:38:42.821Z,0.00
2022-08-22T17:41:18.803Z,0.00
2022-08-22T17:43:49.807Z,0.03
2022-08-22T17:46:25.664Z,0.00
2022-08-22T17:49:03.813Z,0.00
2022-08-22T17:51:39.096Z,0.00
2022-08-22T17:54:29.654Z,0.00
2022-08-22T17:57:05.246Z,0.08
2022-08-22T17:59:40.059Z,0.00
2022-08-22T18:02:22.789Z,0.00
2022-08-22T18:05:07.447Z,0.00
2022-08-22T18:07:47.009Z,0.00
2022-08-22T18:10:21.714Z,0.00
2022-08-22T18:13:24.567Z,0.10
2022-08-22T18:16:00.843Z,0.00
2022-08-22T18:18:37.257Z,0.05
2022-08-22T18:21:15.618Z,0.00
2022-08-22T18:23:52.147Z,0.00
2022-08-22T18:26:29.033Z,0.00
2022-08-22T18:29:03.057Z,0.00
2022-08-22T18:31:55.688Z,0.00
2022-08-22T18:34:40.716Z,0.00
2022-08-22T18:37:09.201Z,0.00
2022-08-22T18:39:43.548Z,0.10
2022-08-22T18:42:19.284Z,0.00
2022-08-22T18:44:46.968Z,0.00
2022-08-22T18:47:20.360Z,0.00
2022-08-22T18:49:54.666Z,0.00
2022-08-22T18:52:32.577Z,0.00
2022-08-22T18:55:03.122Z,0.00
2022-08-22T18:57:38.799Z,0.00
2022-08-22T19:00:21.586Z,0.10
2022-08-22T19:05:52.920Z,0.00
2022-08-22T19:08:23.478Z,0.00
2022-08-22T19:11:11.382Z,0.10
2022-08-22T19:13:53.680Z,0.00
2022-08-22T19:16:56.988Z,0.00
2022-08-22T19:19:55.616Z,0.10
2022-08-22T19:25:11.795Z,0.00
2022-08-22T19:27:41.834Z,0.00
2022-08-22T19:30:29.620Z,0.00
2022-08-22T19:33:00.786Z,0.00
2022-08-22T19:35:29.095Z,0.00
2022-08-22T19:38:00.005Z,0.05
2022-08-22T19:40:45.882Z,0.00
2022-08-22T19:43:32.299Z,0.10
2022-08-22T19:46:01.351Z,0.00
2022-08-22T19:48:34.235Z,0.00
2022-08-22T19:51:10.270Z,0.00
2022-08-22T19:53:47.773Z,0.00
2022-08-22T19:56:27.342Z,0.00
2022-08-22T19:59:04.102Z,0.00
2022-08-22T20:01:35.029Z,0.00
2022-08-22T20:04:09.004Z,0.00
2022-08-22T20:06:56.369Z,0.00
2022-08-22T20:09:49.403Z,0.00
2022-08-22T20:12:20.425Z,0.20
2022-08-22T20:14:48.700Z,0.00
2022-08-22T20:17:27.693Z,0.00
2022-08-22T20:22:52.880Z,0.00
2022-08-22T20:25:42.454Z,0.00
2022-08-22T20:28:25.207Z,0.00
2022-08-22T20:30:56.682Z,0.00
2022-08-22T20:33:50.585Z,0.00
2022-08-22T20:36:28.129Z,0.00
2022-08-22T20:38:59.076Z,0.00
2022-08-22T20:41:35.945Z,0.00
2022-08-22T20:44:03.543Z,0.00
2022-08-22T20:46:32.446Z,0.00
2022-08-22T20:49:01.798Z,0.00
2022-08-22T20:51:30.385Z,0.00
2022-08-22T20:54:09.970Z,0.00
2022-08-22T20:56:53.138Z,0.00
2022-08-22T20:59:36.712Z,0.00
2022-08-22T21:02:16.261Z,0.00
2022-08-22T21:04:47.638Z,0.00
2022-08-22T21:07:21.405Z,0.00
2022-08-22T21:10:22.976Z,0.00
2022-08-22T21:13:03.802Z,0.00
2022-08-22T21:15:33.714Z,0.08
2022-08-22T21:18:01.327Z,0.00
2022-08-22T21:20:31.757Z,0.10
2022-08-22T21:23:03.436Z,0.00
2022-08-22T21:25:31.306Z,0.00
2022-08-22T21:28:00.823Z,0.00
2022-08-22T21:30:32.014Z,0.00
2022-08-22T21:32:59.421Z,0.00
2022-08-22T21:35:31.549Z,0.00
2022-08-22T21:38:00.459Z,0.00
2022-08-22T21:40:33.412Z,0.00
2022-08-22T21:43:03.075Z,0.00
2022-08-22T21:45:42.675Z,0.00
2022-08-22T21:48:28.869Z,0.00
2022-08-22T21:51:28.130Z,0.00
2022-08-22T21:54:19.173Z,0.00
2022-08-22T21:56:46.761Z,0.00
2022-08-22T21:59:25.051Z,0.00
2022-08-22T22:01:52.706Z,0.00
2022-08-22T22:04:23.115Z,0.00
2022-08-22T22:06:50.562Z,0.00
2022-08-22T22:09:17.943Z,0.00
2022-08-22T22:11:45.322Z,0.00
2022-08-22T22:14:14.882Z,0.00
2022-08-22T22:16:42.250Z,0.00
2022-08-22T22:19:09.726Z,0.00
2022-08-22T22:21:38.455Z,0.00
2022-08-22T22:24:06.027Z,0.00
2022-08-22T22:26:33.487Z,0.00
2022-08-22T22:29:03.024Z,0.00
2022-08-22T22:31:33.955Z,0.00
2022-08-22T22:34:01.486Z,0.00
2022-08-22T22:36:29.028Z,0.00
2022-08-22T22:38:56.497Z,0.00
2022-08-22T22:41:25.845Z,0.00
2022-08-22T22:43:54.047Z,0.00
2022-08-22T22:46:21.955Z,0.00
2022-08-22T22:48:49.795Z,0.00
2022-08-22T22:51:17.192Z,0.00
2022-08-22T22:53:45.062Z,0.30
2022-08-22T22:56:16.890Z,0.00
2022-08-22T22:58:44.808Z,0.00
2022-08-22T23:01:14.363Z,0.00
2022-08-22T23:03:41.985Z,0.00
2022-08-22T23:06:13.599Z,0.00
2022-08-22T23:08:41.099Z,0.00
2022-08-22T23:11:11.187Z,0.00
2022-08-22T23:13:39.723Z,0.00
2022-08-22T23:16:10.622Z,0.00
2022-08-22T23:18:37.734Z,0.00
2022-08-22T23:21:18.123Z,0.00
2022-08-22T23:23:46.242Z,0.00
2022-08-22T23:26:17.409Z,0.00
2022-08-22T23:28:45.106Z,0.00
2022-08-22T23:31:15.544Z,0.00
2022-08-22T23:33:43.035Z,0.00
2022-08-22T23:36:11.808Z,0.00
2022-08-22T23:41:10.268Z,0.00
2022-08-22T23:43:37.953Z,0.00
2022-08-22T23:46:05.479Z,0.00
2022-08-22T23:48:32.951Z,0.00
2022-08-22T23:51:00.311Z,0.00
2022-08-22T23:53:30.339Z,0.00
2022-08-22T23:55:59.344Z,0.00
2022-08-22T23:58:26.893Z,0.08
